sensor_id;sensor_type;location;lat;lon;timestamp;P1;durP1;ratioP1;P2;durP2;ratioP2
70322;SDS011;57735;56.264;43.898;2023-04-24T00:00:25;18.85;;;6.35;;
70322;SDS011;57735;56.264;43.898;2023-04-24T00:02:58;22.67;;;6.70;;
70322;SDS011;57735;56.264;43.898;2023-04-24T00:05:29;21.15;;;6.57;;
70322;SDS011;57735;56.264;43.898;2023-04-24T00:08:03;18.08;;;6.63;;
70322;SDS011;57735;56.264;43.898;2023-04-24T00:10:33;20.45;;;6.93;;
70322;SDS011;57735;56.264;43.898;2023-04-24T00:13:04;17.75;;;6.85;;
70322;SDS011;57735;56.264;43.898;2023-04-24T00:15:35;19.48;;;5.53;;
70322;SDS011;57735;56.264;43.898;2023-04-24T00:18:06;30.95;;;6.75;;
70322;SDS011;57735;56.264;43.898;2023-04-24T00:20:37;12.38;;;4.65;;
70322;SDS011;57735;56.264;43.898;2023-04-24T00:23:08;137.93;;;14.57;;
70322;SDS011;57735;56.264;43.898;2023-04-24T00:25:38;89.05;;;10.25;;
70322;SDS011;57735;56.264;43.898;2023-04-24T00:28:10;34.33;;;5.97;;
70322;SDS011;57735;56.264;43.898;2023-04-24T00:30:40;17.00;;;4.03;;
70322;SDS011;57735;56.264;43.898;2023-04-24T00:33:11;11.10;;;4.18;;
70322;SDS011;57735;56.264;43.898;2023-04-24T00:35:42;12.13;;;4.57;;
70322;SDS011;57735;56.264;43.898;2023-04-24T00:38:13;17.05;;;5.35;;
70322;SDS011;57735;56.264;43.898;2023-04-24T00:40:43;14.40;;;4.60;;
70322;SDS011;57735;56.264;43.898;2023-04-24T00:43:15;13.18;;;4.97;;
70322;SDS011;57735;56.264;43.898;2023-04-24T00:45:46;13.40;;;4.93;;
70322;SDS011;57735;56.264;43.898;2023-04-24T00:48:17;10.77;;;4.65;;
70322;SDS011;57735;56.264;43.898;2023-04-24T00:50:48;9.85;;;5.10;;
70322;SDS011;57735;56.264;43.898;2023-04-24T00:53:19;17.10;;;5.28;;
70322;SDS011;57735;56.264;43.898;2023-04-24T00:55:50;14.20;;;6.32;;
70322;SDS011;57735;56.264;43.898;2023-04-24T00:58:21;18.30;;;5.88;;
70322;SDS011;57735;56.264;43.898;2023-04-24T01:00:52;16.40;;;5.72;;
70322;SDS011;57735;56.264;43.898;2023-04-24T01:03:28;16.55;;;5.30;;
70322;SDS011;57735;56.264;43.898;2023-04-24T01:06:03;11.82;;;5.20;;
70322;SDS011;57735;56.264;43.898;2023-04-24T01:08:35;18.25;;;5.57;;
70322;SDS011;57735;56.264;43.898;2023-04-24T01:11:06;13.10;;;5.38;;
70322;SDS011;57735;56.264;43.898;2023-04-24T01:13:37;12.38;;;5.18;;
70322;SDS011;57735;56.264;43.898;2023-04-24T01:16:08;10.07;;;4.78;;
70322;SDS011;57735;56.264;43.898;2023-04-24T01:18:39;12.40;;;5.00;;
70322;SDS011;57735;56.264;43.898;2023-04-24T01:21:10;17.77;;;5.35;;
70322;SDS011;57735;56.264;43.898;2023-04-24T01:23:43;14.65;;;5.47;;
70322;SDS011;57735;56.264;43.898;2023-04-24T01:26:15;15.20;;;5.03;;
70322;SDS011;57735;56.264;43.898;2023-04-24T01:28:50;8.70;;;5.18;;
70322;SDS011;57735;56.264;43.898;2023-04-24T01:31:20;11.30;;;4.90;;
70322;SDS011;57735;56.264;43.898;2023-04-24T01:33:51;9.98;;;4.60;;
70322;SDS011;57735;56.264;43.898;2023-04-24T01:36:24;9.60;;;4.70;;
70322;SDS011;57735;56.264;43.898;2023-04-24T01:38:57;14.93;;;4.22;;
70322;SDS011;57735;56.264;43.898;2023-04-24T01:41:28;12.82;;;5.32;;
70322;SDS011;57735;56.264;43.898;2023-04-24T01:44:02;12.63;;;4.25;;
70322;SDS011;57735;56.264;43.898;2023-04-24T01:46:33;13.82;;;4.78;;
70322;SDS011;57735;56.264;43.898;2023-04-24T01:49:05;11.43;;;4.05;;
70322;SDS011;57735;56.264;43.898;2023-04-24T01:51:36;11.05;;;4.82;;
70322;SDS011;57735;56.264;43.898;2023-04-24T01:54:07;13.90;;;5.13;;
70322;SDS011;57735;56.264;43.898;2023-04-24T01:56:41;9.82;;;4.97;;
70322;SDS011;57735;56.264;43.898;2023-04-24T01:59:13;15.02;;;4.40;;
70322;SDS011;57735;56.264;43.898;2023-04-24T02:01:45;26.45;;;5.03;;
70322;SDS011;57735;56.264;43.898;2023-04-24T02:04:15;10.25;;;4.00;;
70322;SDS011;57735;56.264;43.898;2023-04-24T02:06:46;14.23;;;4.60;;
70322;SDS011;57735;56.264;43.898;2023-04-24T02:09:19;10.90;;;4.18;;
70322;SDS011;57735;56.264;43.898;2023-04-24T02:11:50;14.55;;;4.18;;
70322;SDS011;57735;56.264;43.898;2023-04-24T02:14:21;24.35;;;5.35;;
70322;SDS011;57735;56.264;43.898;2023-04-24T02:16:52;11.65;;;4.22;;
70322;SDS011;57735;56.264;43.898;2023-04-24T02:19:23;14.43;;;4.82;;
70322;SDS011;57735;56.264;43.898;2023-04-24T02:21:56;15.27;;;5.63;;
70322;SDS011;57735;56.264;43.898;2023-04-24T02:24:27;17.73;;;4.90;;
70322;SDS011;57735;56.264;43.898;2023-04-24T02:26:57;17.15;;;4.60;;
70322;SDS011;57735;56.264;43.898;2023-04-24T02:29:28;14.65;;;4.65;;
70322;SDS011;57735;56.264;43.898;2023-04-24T02:31:59;12.05;;;4.30;;
70322;SDS011;57735;56.264;43.898;2023-04-24T02:34:30;9.82;;;4.28;;
70322;SDS011;57735;56.264;43.898;2023-04-24T02:37:01;7.40;;;3.85;;
70322;SDS011;57735;56.264;43.898;2023-04-24T02:39:31;10.85;;;3.97;;
70322;SDS011;57735;56.264;43.898;2023-04-24T02:42:02;10.45;;;3.75;;
70322;SDS011;57735;56.264;43.898;2023-04-24T02:44:33;13.27;;;4.45;;
70322;SDS011;57735;56.264;43.898;2023-04-24T02:47:04;11.82;;;3.80;;
70322;SDS011;57735;56.264;43.898;2023-04-24T02:49:35;9.15;;;4.05;;
70322;SDS011;57735;56.264;43.898;2023-04-24T02:52:05;15.18;;;5.97;;
70322;SDS011;57735;56.264;43.898;2023-04-24T02:54:36;15.50;;;4.75;;
70322;SDS011;57735;56.264;43.898;2023-04-24T02:57:07;18.25;;;4.20;;
70322;SDS011;57735;56.264;43.898;2023-04-24T02:59:38;94.60;;;8.38;;
70322;SDS011;57735;56.264;43.898;2023-04-24T03:02:08;83.72;;;8.02;;
70322;SDS011;57735;56.264;43.898;2023-04-24T03:04:39;25.45;;;4.95;;
70322;SDS011;57735;56.264;43.898;2023-04-24T03:07:10;16.90;;;4.18;;
70322;SDS011;57735;56.264;43.898;2023-04-24T03:09:44;19.20;;;4.93;;
70322;SDS011;57735;56.264;43.898;2023-04-24T03:12:14;9.73;;;4.35;;
70322;SDS011;57735;56.264;43.898;2023-04-24T03:14:47;16.50;;;5.28;;
70322;SDS011;57735;56.264;43.898;2023-04-24T03:17:18;8.02;;;3.78;;
70322;SDS011;57735;56.264;43.898;2023-04-24T03:19:52;10.25;;;3.08;;
70322;SDS011;57735;56.264;43.898;2023-04-24T03:22:22;11.98;;;3.53;;
70322;SDS011;57735;56.264;43.898;2023-04-24T03:24:53;22.33;;;4.15;;
70322;SDS011;57735;56.264;43.898;2023-04-24T03:27:25;15.82;;;3.95;;
70322;SDS011;57735;56.264;43.898;2023-04-24T03:29:56;10.52;;;3.30;;
70322;SDS011;57735;56.264;43.898;2023-04-24T03:32:27;11.95;;;3.20;;
70322;SDS011;57735;56.264;43.898;2023-04-24T03:34:58;13.95;;;3.22;;
70322;SDS011;57735;56.264;43.898;2023-04-24T03:37:30;15.45;;;3.03;;
70322;SDS011;57735;56.264;43.898;2023-04-24T03:40:01;6.93;;;3.25;;
70322;SDS011;57735;56.264;43.898;2023-04-24T03:42:33;9.80;;;3.33;;
70322;SDS011;57735;56.264;43.898;2023-04-24T03:45:04;7.97;;;2.75;;
70322;SDS011;57735;56.264;43.898;2023-04-24T03:47:36;10.07;;;3.33;;
70322;SDS011;57735;56.264;43.898;2023-04-24T03:50:07;9.20;;;3.28;;
70322;SDS011;57735;56.264;43.898;2023-04-24T03:52:38;7.55;;;3.20;;
70322;SDS011;57735;56.264;43.898;2023-04-24T03:55:08;13.30;;;3.83;;
70322;SDS011;57735;56.264;43.898;2023-04-24T03:57:43;13.02;;;3.30;;
70322;SDS011;57735;56.264;43.898;2023-04-24T04:00:16;8.80;;;3.75;;
70322;SDS011;57735;56.264;43.898;2023-04-24T04:02:46;7.90;;;3.33;;
70322;SDS011;57735;56.264;43.898;2023-04-24T04:05:17;6.45;;;2.95;;
70322;SDS011;57735;56.264;43.898;2023-04-24T04:07:48;14.82;;;3.95;;
70322;SDS011;57735;56.264;43.898;2023-04-24T04:10:22;7.10;;;3.72;;
70322;SDS011;57735;56.264;43.898;2023-04-24T04:12:53;17.30;;;3.92;;
70322;SDS011;57735;56.264;43.898;2023-04-24T04:15:23;17.30;;;4.35;;
70322;SDS011;57735;56.264;43.898;2023-04-24T04:17:54;12.70;;;3.47;;
70322;SDS011;57735;56.264;43.898;2023-04-24T04:20:27;11.07;;;4.00;;
70322;SDS011;57735;56.264;43.898;2023-04-24T04:22:58;11.00;;;3.40;;
70322;SDS011;57735;56.264;43.898;2023-04-24T04:25:29;7.80;;;3.20;;
70322;SDS011;57735;56.264;43.898;2023-04-24T04:28:00;17.00;;;3.47;;
70322;SDS011;57735;56.264;43.898;2023-04-24T04:30:32;9.35;;;2.92;;
70322;SDS011;57735;56.264;43.898;2023-04-24T04:33:02;8.70;;;3.33;;
70322;SDS011;57735;56.264;43.898;2023-04-24T04:35:33;9.10;;;3.42;;
70322;SDS011;57735;56.264;43.898;2023-04-24T04:38:04;8.73;;;3.33;;
70322;SDS011;57735;56.264;43.898;2023-04-24T04:40:38;14.27;;;3.17;;
70322;SDS011;57735;56.264;43.898;2023-04-24T04:43:09;29.73;;;9.55;;
70322;SDS011;57735;56.264;43.898;2023-04-24T04:45:41;43.90;;;13.85;;
70322;SDS011;57735;56.264;43.898;2023-04-24T04:48:13;46.83;;;14.30;;
70322;SDS011;57735;56.264;43.898;2023-04-24T04:50:47;42.72;;;16.02;;
70322;SDS011;57735;56.264;43.898;2023-04-24T04:53:17;46.80;;;16.05;;
70322;SDS011;57735;56.264;43.898;2023-04-24T04:55:48;35.90;;;12.55;;
70322;SDS011;57735;56.264;43.898;2023-04-24T04:58:19;49.35;;;14.32;;
70322;SDS011;57735;56.264;43.898;2023-04-24T05:00:50;47.70;;;16.88;;
70322;SDS011;57735;56.264;43.898;2023-04-24T05:03:21;55.42;;;18.90;;
70322;SDS011;57735;56.264;43.898;2023-04-24T05:05:51;64.35;;;20.20;;
70322;SDS011;57735;56.264;43.898;2023-04-24T05:08:22;47.92;;;17.60;;
70322;SDS011;57735;56.264;43.898;2023-04-24T05:10:53;24.45;;;9.32;;
70322;SDS011;57735;56.264;43.898;2023-04-24T05:13:25;26.23;;;10.27;;
70322;SDS011;57735;56.264;43.898;2023-04-24T05:15:56;22.35;;;6.80;;
70322;SDS011;57735;56.264;43.898;2023-04-24T05:18:27;13.50;;;4.53;;
70322;SDS011;57735;56.264;43.898;2023-04-24T05:21:01;14.07;;;3.97;;
70322;SDS011;57735;56.264;43.898;2023-04-24T05:23:31;16.35;;;3.67;;
70322;SDS011;57735;56.264;43.898;2023-04-24T05:26:02;13.20;;;3.90;;
70322;SDS011;57735;56.264;43.898;2023-04-24T05:28:33;11.90;;;3.60;;
70322;SDS011;57735;56.264;43.898;2023-04-24T05:31:06;13.25;;;3.47;;
70322;SDS011;57735;56.264;43.898;2023-04-24T05:33:37;9.90;;;3.55;;
70322;SDS011;57735;56.264;43.898;2023-04-24T05:36:10;7.15;;;3.33;;
70322;SDS011;57735;56.264;43.898;2023-04-24T05:38:41;22.58;;;3.78;;
70322;SDS011;57735;56.264;43.898;2023-04-24T05:41:11;16.85;;;3.75;;
70322;SDS011;57735;56.264;43.898;2023-04-24T05:43:42;11.63;;;3.60;;
70322;SDS011;57735;56.264;43.898;2023-04-24T05:46:13;12.73;;;4.32;;
70322;SDS011;57735;56.264;43.898;2023-04-24T05:48:43;19.90;;;3.78;;
70322;SDS011;57735;56.264;43.898;2023-04-24T05:51:16;10.32;;;3.80;;
70322;SDS011;57735;56.264;43.898;2023-04-24T05:53:47;10.57;;;3.67;;
70322;SDS011;57735;56.264;43.898;2023-04-24T05:56:18;18.33;;;3.78;;
70322;SDS011;57735;56.264;43.898;2023-04-24T05:58:55;11.00;;;3.50;;
70322;SDS011;57735;56.264;43.898;2023-04-24T06:01:26;16.15;;;3.75;;
70322;SDS011;57735;56.264;43.898;2023-04-24T06:03:57;13.50;;;3.42;;
70322;SDS011;57735;56.264;43.898;2023-04-24T06:06:27;12.32;;;3.53;;
70322;SDS011;57735;56.264;43.898;2023-04-24T06:08:59;17.15;;;3.80;;
70322;SDS011;57735;56.264;43.898;2023-04-24T06:11:29;13.18;;;3.88;;
70322;SDS011;57735;56.264;43.898;2023-04-24T06:14:00;12.95;;;3.35;;
70322;SDS011;57735;56.264;43.898;2023-04-24T06:16:31;10.20;;;3.15;;
70322;SDS011;57735;56.264;43.898;2023-04-24T06:19:02;11.00;;;3.63;;
70322;SDS011;57735;56.264;43.898;2023-04-24T06:21:36;13.68;;;3.20;;
70322;SDS011;57735;56.264;43.898;2023-04-24T06:24:12;11.82;;;3.20;;
70322;SDS011;57735;56.264;43.898;2023-04-24T06:26:44;9.38;;;3.38;;
70322;SDS011;57735;56.264;43.898;2023-04-24T06:29:17;9.05;;;3.28;;
70322;SDS011;57735;56.264;43.898;2023-04-24T06:31:48;8.77;;;3.28;;
70322;SDS011;57735;56.264;43.898;2023-04-24T06:34:19;14.23;;;3.30;;
70322;SDS011;57735;56.264;43.898;2023-04-24T06:36:52;8.93;;;2.95;;
70322;SDS011;57735;56.264;43.898;2023-04-24T06:39:26;11.20;;;3.58;;
70322;SDS011;57735;56.264;43.898;2023-04-24T06:41:56;8.13;;;2.90;;
70322;SDS011;57735;56.264;43.898;2023-04-24T06:44:27;13.25;;;4.05;;
70322;SDS011;57735;56.264;43.898;2023-04-24T06:46:58;8.25;;;3.38;;
70322;SDS011;57735;56.264;43.898;2023-04-24T06:49:29;12.80;;;3.08;;
70322;SDS011;57735;56.264;43.898;2023-04-24T06:52:00;11.38;;;3.05;;
70322;SDS011;57735;56.264;43.898;2023-04-24T06:54:31;15.20;;;3.30;;
70322;SDS011;57735;56.264;43.898;2023-04-24T06:57:02;6.45;;;2.97;;
70322;SDS011;57735;56.264;43.898;2023-04-24T06:59:33;10.75;;;3.33;;
70322;SDS011;57735;56.264;43.898;2023-04-24T07:02:04;17.35;;;3.47;;
70322;SDS011;57735;56.264;43.898;2023-04-24T07:04:35;5.63;;;2.53;;
70322;SDS011;57735;56.264;43.898;2023-04-24T07:07:08;7.73;;;3.33;;
70322;SDS011;57735;56.264;43.898;2023-04-24T07:09:43;6.53;;;3.17;;
70322;SDS011;57735;56.264;43.898;2023-04-24T07:12:14;11.05;;;2.97;;
70322;SDS011;57735;56.264;43.898;2023-04-24T07:14:47;7.95;;;2.40;;
70322;SDS011;57735;56.264;43.898;2023-04-24T07:17:18;7.88;;;2.63;;
70322;SDS011;57735;56.264;43.898;2023-04-24T07:19:49;21.75;;;3.03;;
70322;SDS011;57735;56.264;43.898;2023-04-24T07:22:20;10.43;;;2.53;;
70322;SDS011;57735;56.264;43.898;2023-04-24T07:24:51;13.50;;;2.80;;
70322;SDS011;57735;56.264;43.898;2023-04-24T07:27:21;11.93;;;2.88;;
70322;SDS011;57735;56.264;43.898;2023-04-24T07:29:52;7.18;;;3.20;;
70322;SDS011;57735;56.264;43.898;2023-04-24T07:32:23;11.88;;;3.33;;
70322;SDS011;57735;56.264;43.898;2023-04-24T07:34:54;15.43;;;3.00;;
70322;SDS011;57735;56.264;43.898;2023-04-24T07:37:25;10.93;;;3.28;;
70322;SDS011;57735;56.264;43.898;2023-04-24T07:39:59;9.13;;;2.60;;
70322;SDS011;57735;56.264;43.898;2023-04-24T07:42:30;15.68;;;3.30;;
70322;SDS011;57735;56.264;43.898;2023-04-24T07:45:01;16.75;;;3.10;;
70322;SDS011;57735;56.264;43.898;2023-04-24T07:47:34;9.77;;;3.28;;
70322;SDS011;57735;56.264;43.898;2023-04-24T07:50:07;14.85;;;3.90;;
70322;SDS011;57735;56.264;43.898;2023-04-24T07:52:41;14.57;;;4.50;;
70322;SDS011;57735;56.264;43.898;2023-04-24T07:55:12;9.88;;;4.10;;
70322;SDS011;57735;56.264;43.898;2023-04-24T07:57:42;13.32;;;3.67;;
70322;SDS011;57735;56.264;43.898;2023-04-24T08:00:13;12.10;;;3.63;;
70322;SDS011;57735;56.264;43.898;2023-04-24T08:02:44;8.73;;;3.65;;
70322;SDS011;57735;56.264;43.898;2023-04-24T08:05:18;18.70;;;4.35;;
70322;SDS011;57735;56.264;43.898;2023-04-24T08:07:48;13.20;;;3.80;;
70322;SDS011;57735;56.264;43.898;2023-04-24T08:10:21;8.25;;;4.00;;
70322;SDS011;57735;56.264;43.898;2023-04-24T08:12:52;13.85;;;6.18;;
70322;SDS011;57735;56.264;43.898;2023-04-24T08:15:24;35.58;;;5.60;;
70322;SDS011;57735;56.264;43.898;2023-04-24T08:18:07;8.40;;;3.97;;
70322;SDS011;57735;56.264;43.898;2023-04-24T08:20:38;4.65;;;3.30;;
70322;SDS011;57735;56.264;43.898;2023-04-24T08:23:09;11.63;;;3.55;;
70322;SDS011;57735;56.264;43.898;2023-04-24T08:25:40;10.13;;;3.63;;
70322;SDS011;57735;56.264;43.898;2023-04-24T08:28:11;9.80;;;3.42;;
70322;SDS011;57735;56.264;43.898;2023-04-24T08:30:42;14.02;;;3.17;;
70322;SDS011;57735;56.264;43.898;2023-04-24T08:33:13;11.40;;;3.65;;
70322;SDS011;57735;56.264;43.898;2023-04-24T08:35:44;10.32;;;3.80;;
70322;SDS011;57735;56.264;43.898;2023-04-24T08:38:15;39.95;;;4.32;;
70322;SDS011;57735;56.264;43.898;2023-04-24T08:40:47;21.77;;;3.50;;
70322;SDS011;57735;56.264;43.898;2023-04-24T08:43:20;7.05;;;3.10;;
70322;SDS011;57735;56.264;43.898;2023-04-24T08:45:56;13.30;;;3.53;;
70322;SDS011;57735;56.264;43.898;2023-04-24T08:48:31;15.52;;;3.63;;
70322;SDS011;57735;56.264;43.898;2023-04-24T08:51:02;18.15;;;3.35;;
70322;SDS011;57735;56.264;43.898;2023-04-24T08:53:39;9.43;;;3.38;;
70322;SDS011;57735;56.264;43.898;2023-04-24T08:56:10;15.65;;;2.92;;
70322;SDS011;57735;56.264;43.898;2023-04-24T08:58:42;4.95;;;3.13;;
70322;SDS011;57735;56.264;43.898;2023-04-24T09:01:14;5.70;;;2.83;;
70322;SDS011;57735;56.264;43.898;2023-04-24T09:03:46;5.82;;;2.60;;
70322;SDS011;57735;56.264;43.898;2023-04-24T09:06:19;5.88;;;2.60;;
70322;SDS011;57735;56.264;43.898;2023-04-24T09:09:02;5.38;;;2.50;;
70322;SDS011;57735;56.264;43.898;2023-04-24T09:11:33;4.28;;;2.70;;
70322;SDS011;57735;56.264;43.898;2023-04-24T09:14:04;7.82;;;2.60;;
70322;SDS011;57735;56.264;43.898;2023-04-24T09:16:37;7.18;;;2.70;;
70322;SDS011;57735;56.264;43.898;2023-04-24T09:19:07;7.30;;;2.90;;
70322;SDS011;57735;56.264;43.898;2023-04-24T09:21:38;6.93;;;2.30;;
70322;SDS011;57735;56.264;43.898;2023-04-24T09:24:17;40.22;;;3.47;;
70322;SDS011;57735;56.264;43.898;2023-04-24T09:26:56;11.05;;;2.50;;
70322;SDS011;57735;56.264;43.898;2023-04-24T09:29:30;8.82;;;2.33;;
70322;SDS011;57735;56.264;43.898;2023-04-24T09:32:19;9.38;;;2.47;;
70322;SDS011;57735;56.264;43.898;2023-04-24T09:37:43;12.35;;;2.60;;
70322;SDS011;57735;56.264;43.898;2023-04-24T09:40:16;12.77;;;2.58;;
70322;SDS011;57735;56.264;43.898;2023-04-24T09:42:52;16.65;;;3.13;;
70322;SDS011;57735;56.264;43.898;2023-04-24T09:45:27;11.63;;;2.92;;
70322;SDS011;57735;56.264;43.898;2023-04-24T09:48:05;13.50;;;2.90;;
70322;SDS011;57735;56.264;43.898;2023-04-24T09:50:42;17.15;;;3.20;;
70322;SDS011;57735;56.264;43.898;2023-04-24T09:53:17;7.65;;;2.30;;
70322;SDS011;57735;56.264;43.898;2023-04-24T09:55:54;8.98;;;2.35;;
70322;SDS011;57735;56.264;43.898;2023-04-24T09:58:26;7.60;;;2.35;;
70322;SDS011;57735;56.264;43.898;2023-04-24T10:04:28;13.73;;;2.92;;
70322;SDS011;57735;56.264;43.898;2023-04-24T10:07:00;16.63;;;2.50;;
70322;SDS011;57735;56.264;43.898;2023-04-24T10:09:36;21.42;;;2.60;;
70322;SDS011;57735;56.264;43.898;2023-04-24T10:12:07;6.60;;;2.50;;
70322;SDS011;57735;56.264;43.898;2023-04-24T10:14:38;6.22;;;2.28;;
70322;SDS011;57735;56.264;43.898;2023-04-24T10:17:09;6.88;;;2.03;;
70322;SDS011;57735;56.264;43.898;2023-04-24T10:19:42;8.95;;;2.33;;
70322;SDS011;57735;56.264;43.898;2023-04-24T10:22:14;14.15;;;2.70;;
70322;SDS011;57735;56.264;43.898;2023-04-24T10:24:46;10.55;;;2.40;;
70322;SDS011;57735;56.264;43.898;2023-04-24T10:27:19;7.20;;;2.40;;
70322;SDS011;57735;56.264;43.898;2023-04-24T10:29:52;9.63;;;2.17;;
70322;SDS011;57735;56.264;43.898;2023-04-24T10:32:24;6.15;;;2.00;;
70322;SDS011;57735;56.264;43.898;2023-04-24T10:34:58;5.13;;;2.17;;
70322;SDS011;57735;56.264;43.898;2023-04-24T10:40:37;4.68;;;2.08;;
70322;SDS011;57735;56.264;43.898;2023-04-24T10:43:08;6.55;;;2.00;;
70322;SDS011;57735;56.264;43.898;2023-04-24T10:48:30;3.20;;;1.95;;
70322;SDS011;57735;56.264;43.898;2023-04-24T10:51:02;12.60;;;2.28;;
70322;SDS011;57735;56.264;43.898;2023-04-24T10:53:34;6.10;;;1.90;;
70322;SDS011;57735;56.264;43.898;2023-04-24T10:56:06;9.23;;;2.72;;
70322;SDS011;57735;56.264;43.898;2023-04-24T11:01:26;12.98;;;2.20;;
70322;SDS011;57735;56.264;43.898;2023-04-24T11:04:03;10.80;;;1.80;;
70322;SDS011;57735;56.264;43.898;2023-04-24T11:06:34;11.88;;;2.10;;
70322;SDS011;57735;56.264;43.898;2023-04-24T11:11:38;9.73;;;2.45;;
70322;SDS011;57735;56.264;43.898;2023-04-24T11:14:17;3.70;;;1.92;;
70322;SDS011;57735;56.264;43.898;2023-04-24T11:16:52;3.38;;;1.80;;
70322;SDS011;57735;56.264;43.898;2023-04-24T11:19:25;3.55;;;1.85;;
70322;SDS011;57735;56.264;43.898;2023-04-24T11:22:03;4.07;;;2.00;;
70322;SDS011;57735;56.264;43.898;2023-04-24T11:27:07;4.43;;;1.80;;
70322;SDS011;57735;56.264;43.898;2023-04-24T11:29:48;13.98;;;4.00;;
70322;SDS011;57735;56.264;43.898;2023-04-24T11:37:40;9.13;;;2.50;;
70322;SDS011;57735;56.264;43.898;2023-04-24T11:40:20;7.00;;;2.20;;
70322;SDS011;57735;56.264;43.898;2023-04-24T11:42:55;6.10;;;2.03;;
70322;SDS011;57735;56.264;43.898;2023-04-24T11:45:30;5.60;;;2.17;;
70322;SDS011;57735;56.264;43.898;2023-04-24T11:48:02;8.05;;;2.55;;
70322;SDS011;57735;56.264;43.898;2023-04-24T11:50:33;10.40;;;2.20;;
70322;SDS011;57735;56.264;43.898;2023-04-24T11:53:04;3.08;;;1.98;;
70322;SDS011;57735;56.264;43.898;2023-04-24T11:55:35;4.57;;;1.80;;
70322;SDS011;57735;56.264;43.898;2023-04-24T11:58:05;6.65;;;1.90;;
70322;SDS011;57735;56.264;43.898;2023-04-24T12:00:36;7.55;;;2.38;;
70322;SDS011;57735;56.264;43.898;2023-04-24T12:03:10;14.05;;;2.40;;
70322;SDS011;57735;56.264;43.898;2023-04-24T12:05:42;5.38;;;2.00;;
70322;SDS011;57735;56.264;43.898;2023-04-24T12:08:26;4.13;;;1.80;;
70322;SDS011;57735;56.264;43.898;2023-04-24T12:11:00;2.78;;;1.90;;
70322;SDS011;57735;56.264;43.898;2023-04-24T12:13:37;12.40;;;2.60;;
70322;SDS011;57735;56.264;43.898;2023-04-24T12:16:10;6.10;;;2.45;;
70322;SDS011;57735;56.264;43.898;2023-04-24T12:18:42;4.75;;;2.10;;
70322;SDS011;57735;56.264;43.898;2023-04-24T12:21:20;4.78;;;2.17;;
70322;SDS011;57735;56.264;43.898;2023-04-24T12:23:56;6.07;;;2.75;;
70322;SDS011;57735;56.264;43.898;2023-04-24T12:26:27;8.77;;;2.08;;
70322;SDS011;57735;56.264;43.898;2023-04-24T12:29:01;7.22;;;2.00;;
70322;SDS011;57735;56.264;43.898;2023-04-24T12:31:33;4.93;;;2.13;;
70322;SDS011;57735;56.264;43.898;2023-04-24T12:34:17;5.25;;;2.50;;
70322;SDS011;57735;56.264;43.898;2023-04-24T12:36:51;16.90;;;3.10;;
70322;SDS011;57735;56.264;43.898;2023-04-24T12:39:22;7.00;;;2.40;;
70322;SDS011;57735;56.264;43.898;2023-04-24T12:44:35;3.15;;;2.10;;
70322;SDS011;57735;56.264;43.898;2023-04-24T12:47:07;14.73;;;2.40;;
70322;SDS011;57735;56.264;43.898;2023-04-24T12:49:38;9.40;;;2.55;;
70322;SDS011;57735;56.264;43.898;2023-04-24T12:52:11;7.82;;;2.00;;
70322;SDS011;57735;56.264;43.898;2023-04-24T12:54:42;5.85;;;1.90;;
70322;SDS011;57735;56.264;43.898;2023-04-24T12:57:13;18.33;;;2.40;;
70322;SDS011;57735;56.264;43.898;2023-04-24T12:59:44;4.93;;;2.22;;
70322;SDS011;57735;56.264;43.898;2023-04-24T13:02:17;5.55;;;2.30;;
70322;SDS011;57735;56.264;43.898;2023-04-24T13:04:48;42.63;;;4.22;;
70322;SDS011;57735;56.264;43.898;2023-04-24T13:07:19;16.35;;;2.35;;
70322;SDS011;57735;56.264;43.898;2023-04-24T13:09:50;8.50;;;2.20;;
70322;SDS011;57735;56.264;43.898;2023-04-24T13:12:21;4.20;;;1.88;;
70322;SDS011;57735;56.264;43.898;2023-04-24T13:14:54;7.00;;;2.10;;
70322;SDS011;57735;56.264;43.898;2023-04-24T13:17:28;8.35;;;2.47;;
70322;SDS011;57735;56.264;43.898;2023-04-24T13:19:58;5.32;;;1.77;;
70322;SDS011;57735;56.264;43.898;2023-04-24T13:22:29;6.35;;;2.22;;
70322;SDS011;57735;56.264;43.898;2023-04-24T13:25:00;5.50;;;2.15;;
70322;SDS011;57735;56.264;43.898;2023-04-24T13:27:31;20.02;;;2.95;;
70322;SDS011;57735;56.264;43.898;2023-04-24T13:30:02;6.55;;;2.28;;
70322;SDS011;57735;56.264;43.898;2023-04-24T13:32:34;2.95;;;1.90;;
70322;SDS011;57735;56.264;43.898;2023-04-24T13:35:05;3.70;;;2.30;;
70322;SDS011;57735;56.264;43.898;2023-04-24T13:37:37;8.35;;;2.22;;
70322;SDS011;57735;56.264;43.898;2023-04-24T13:40:07;6.60;;;2.50;;
70322;SDS011;57735;56.264;43.898;2023-04-24T13:42:39;23.27;;;3.20;;
70322;SDS011;57735;56.264;43.898;2023-04-24T13:45:10;15.73;;;2.13;;
70322;SDS011;57735;56.264;43.898;2023-04-24T13:47:41;5.53;;;1.98;;
70322;SDS011;57735;56.264;43.898;2023-04-24T13:50:12;5.28;;;2.00;;
70322;SDS011;57735;56.264;43.898;2023-04-24T13:52:43;6.18;;;2.33;;
70322;SDS011;57735;56.264;43.898;2023-04-24T13:55:13;6.88;;;1.73;;
70322;SDS011;57735;56.264;43.898;2023-04-24T13:57:44;18.60;;;2.00;;
70322;SDS011;57735;56.264;43.898;2023-04-24T14:00:15;5.13;;;1.85;;
70322;SDS011;57735;56.264;43.898;2023-04-24T14:02:46;6.53;;;2.05;;
70322;SDS011;57735;56.264;43.898;2023-04-24T14:05:17;11.30;;;2.22;;
70322;SDS011;57735;56.264;43.898;2023-04-24T14:07:48;5.13;;;2.00;;
70322;SDS011;57735;56.264;43.898;2023-04-24T14:10:19;6.78;;;1.80;;
70322;SDS011;57735;56.264;43.898;2023-04-24T14:12:50;14.85;;;2.80;;
70322;SDS011;57735;56.264;43.898;2023-04-24T14:15:21;14.63;;;2.00;;
70322;SDS011;57735;56.264;43.898;2023-04-24T14:17:54;8.30;;;2.90;;
70322;SDS011;57735;56.264;43.898;2023-04-24T14:20:25;3.60;;;1.50;;
70322;SDS011;57735;56.264;43.898;2023-04-24T14:22:58;4.70;;;1.70;;
70322;SDS011;57735;56.264;43.898;2023-04-24T14:25:29;9.38;;;2.42;;
70322;SDS011;57735;56.264;43.898;2023-04-24T14:28:00;11.23;;;2.10;;
70322;SDS011;57735;56.264;43.898;2023-04-24T14:30:31;15.77;;;2.53;;
70322;SDS011;57735;56.264;43.898;2023-04-24T14:33:02;7.13;;;1.80;;
70322;SDS011;57735;56.264;43.898;2023-04-24T14:35:33;87.35;;;5.72;;
70322;SDS011;57735;56.264;43.898;2023-04-24T14:38:05;13.57;;;2.55;;
70322;SDS011;57735;56.264;43.898;2023-04-24T14:40:36;8.45;;;2.00;;
70322;SDS011;57735;56.264;43.898;2023-04-24T14:43:09;5.88;;;1.90;;
70322;SDS011;57735;56.264;43.898;2023-04-24T14:45:40;5.82;;;2.00;;
70322;SDS011;57735;56.264;43.898;2023-04-24T14:48:11;16.65;;;2.10;;
70322;SDS011;57735;56.264;43.898;2023-04-24T14:50:42;10.57;;;2.00;;
70322;SDS011;57735;56.264;43.898;2023-04-24T14:53:12;9.07;;;2.50;;
70322;SDS011;57735;56.264;43.898;2023-04-24T14:55:43;5.25;;;2.38;;
70322;SDS011;57735;56.264;43.898;2023-04-24T14:58:14;13.13;;;2.53;;
70322;SDS011;57735;56.264;43.898;2023-04-24T15:00:47;35.25;;;3.63;;
70322;SDS011;57735;56.264;43.898;2023-04-24T15:03:22;16.50;;;3.50;;
70322;SDS011;57735;56.264;43.898;2023-04-24T15:05:53;10.13;;;2.50;;
70322;SDS011;57735;56.264;43.898;2023-04-24T15:08:24;6.32;;;2.20;;
70322;SDS011;57735;56.264;43.898;2023-04-24T15:10:55;14.18;;;2.33;;
70322;SDS011;57735;56.264;43.898;2023-04-24T15:13:26;4.68;;;2.13;;
70322;SDS011;57735;56.264;43.898;2023-04-24T15:15:59;3.60;;;2.20;;
70322;SDS011;57735;56.264;43.898;2023-04-24T15:18:32;13.70;;;2.72;;
70322;SDS011;57735;56.264;43.898;2023-04-24T15:21:03;7.20;;;3.47;;